Current | Forecast
Updated: 11:00 AM JST on December 11, 2017
Observed at Matsuyama Airport, Japan
Temperature 10°C
Humidity 43%
Dew Point -2°C
Wind West at 33 km/h
Pressure 1016 hPa (Steady)
Conditions Mostly Cloudy
Visibility 10.0 kilometers
UV 2 out of 16
Clouds (FEW) : 609 m
Scattered Clouds (SCT) : 1219 m
Mostly Cloudy (BKN) : 1828 m
Yesterday's Maximum 15°C
Yesterday's Minimum 6°C approx.
Yesterday's Heating Degree Days 14 approx.
Sunrise7:01 AM JST
Sunset5:01 PM JST
Moon Rise12:12 AM JST
Moon Set12:59 PM JST
Moon PhaseMoon Phase
Last Quarter
Raw METARMETAR RJOM 110200Z 28018KT 9999 FEW020 SCT040 BKN060 10/M02 Q1016


Monday
. High: 71° F.
Tuesday
. High: 75° F.
Wednesday
. High: 71° F.
Thursday
. High: 75° F.
Friday
. High: 71° F.
Saturday
. High: 73° F.
Sunday
. High: 75° F.
Monday
. High: 78° F.

Units: English | Metric

Find the Weather for any City, State or Zipcode, or Country:

U.S. State List | Severe Weather | Tropical Storms | Ski Conditions
United States | Canada | Central America | South America | Asia | Europe | Australia | Africa | Islands

Weather Underground

© Copyright 2017
The Weather Company, LLC